Time;durP1;ratioP1;P1;durP2;ratioP2;P2;SDS_P1;SDS_P2;PMS_P1;PMS_P2;Temp;Humidity;BMP_temperature;BMP_pressure;BME280_temperature;BME280_humidity;BME280_pressure;Samples;Min_cycle;Max_cycle;Signal;HPM_P1;HPM_P2
2021/08/14 00:02:43;;;;;;;13.90;10.07;;;21.90;65.20;;;;;;4881202;29;20052;-88
2021/08/14 00:08:32;;;;;;;13.13;8.70;;;21.80;65.80;;;;;;4881146;29;20032;-87
2021/08/14 00:14:21;;;;;;;12.75;6.82;;;21.70;66.10;;;;;;4881328;29;20048;-87
2021/08/14 00:20:11;;;;;;;13.13;7.40;;;21.60;66.60;;;;;;4880899;29;20032;-87
2021/08/14 00:25:59;;;;;;;10.90;6.68;;;21.60;66.90;;;;;;4881072;29;20550;-87
2021/08/14 00:31:49;;;;;;;11.35;6.68;;;21.60;67.20;;;;;;4880848;29;20044;-87
2021/08/14 00:37:38;;;;;;;11.73;6.80;;;21.60;67.30;;;;;;4881234;29;20052;-87
2021/08/14 00:47:27;;;;;;;11.43;7.22;;;21.50;67.40;;;;;;4880506;29;20130;-87
2021/08/14 00:53:17;;;;;;;10.80;7.00;;;21.30;67.00;;;;;;4880582;29;20040;-88
2021/08/14 00:59:06;;;;;;;14.00;7.60;;;21.20;67.70;;;;;;4880593;29;20454;-87
2021/08/14 01:04:55;;;;;;;11.80;7.38;;;21.10;67.80;;;;;;4880161;29;20132;-88
2021/08/14 01:10:45;;;;;;;11.68;6.80;;;21.10;68.30;;;;;;4880483;29;20040;-87
2021/08/14 01:16:33;;;;;;;13.88;7.78;;;21.00;68.50;;;;;;4880442;29;20032;-87
2021/08/14 01:22:22;;;;;;;15.73;7.85;;;20.90;68.30;;;;;;4880759;29;20140;-87
2021/08/14 01:28:13;;;;;;;13.90;8.15;;;20.80;68.80;;;;;;4884927;29;20060;-89
2021/08/14 01:34:03;;;;;;;12.20;7.35;;;20.70;69.00;;;;;;4883159;29;20036;-88
2021/08/14 01:39:52;;;;;;;13.45;7.63;;;20.70;69.60;;;;;;4886146;29;20040;-86
2021/08/14 01:49:34;;;;;;;14.75;8.20;;;20.60;69.70;;;;;;4884058;29;20039;-87
2021/08/14 01:55:24;;;;;;;15.68;7.30;;;20.60;70.10;;;;;;4897507;29;20107;-87
2021/08/14 02:01:14;;;;;;;12.75;8.20;;;20.50;69.90;;;;;;4891281;29;20092;-87
2021/08/14 02:07:02;;;;;;;13.35;8.70;;;20.40;69.80;;;;;;4883370;29;20036;-87
2021/08/14 02:12:51;;;;;;;13.10;7.78;;;20.30;70.10;;;;;;4893852;29;20024;-87
2021/08/14 02:18:39;;;;;;;17.63;7.40;;;20.20;70.80;;;;;;4883737;29;20040;-88
2021/08/14 02:24:28;;;;;;;16.92;7.60;;;20.20;70.90;;;;;;4883367;29;20121;-88
2021/08/14 02:30:17;;;;;;;12.30;8.20;;;20.20;71.00;;;;;;4882896;29;20040;-87
2021/08/14 02:36:06;;;;;;;15.07;7.82;;;20.10;71.10;;;;;;4882750;29;20080;-86
2021/08/14 02:41:55;;;;;;;13.30;7.95;;;20.00;70.80;;;;;;4882150;29;20084;-86
2021/08/14 02:51:40;;;;;;;13.50;8.63;;;19.80;71.00;;;;;;4882738;29;20113;-85
2021/08/14 02:57:29;;;;;;;15.90;8.63;;;19.60;71.20;;;;;;4881947;29;20040;-86
2021/08/14 03:03:18;;;;;;;13.48;9.20;;;19.50;71.60;;;;;;4881783;29;20599;-86
2021/08/14 03:09:08;;;;;;;14.27;9.13;;;19.40;71.70;;;;;;4882140;29;20036;-87
2021/08/14 03:14:57;;;;;;;15.50;10.05;;;19.30;71.90;;;;;;4881629;29;20076;-87
2021/08/14 03:20:46;;;;;;;14.90;9.00;;;19.20;72.00;;;;;;4881833;29;20080;-87
2021/08/14 03:26:34;;;;;;;12.85;9.20;;;19.10;72.10;;;;;;4881956;29;20048;-87
2021/08/14 03:32:23;;;;;;;14.45;9.63;;;19.00;72.30;;;;;;4881393;29;20052;-87
2021/08/14 03:38:11;;;;;;;15.18;9.95;;;18.90;72.50;;;;;;4881786;29;20036;-87
2021/08/14 03:44:00;;;;;;;16.85;10.13;;;18.90;72.80;;;;;;4881474;29;20391;-86
2021/08/14 03:53:43;;;;;;;13.60;9.23;;;18.70;72.90;;;;;;4881451;29;20060;-87
2021/08/14 03:59:32;;;;;;;15.38;9.77;;;18.70;73.20;;;;;;4881099;29;20031;-86
2021/08/14 04:05:26;;;;;;;14.00;9.25;;;18.60;73.20;;;;;;4880798;29;20163;-86
2021/08/14 04:11:24;;;;;;;18.48;9.70;;;18.50;73.50;;;;;;4880938;29;20175;-86
2021/08/14 04:17:12;;;;;;;14.75;9.93;;;18.50;73.70;;;;;;4881016;29;20104;-86
2021/08/14 04:23:01;;;;;;;15.75;9.35;;;18.50;73.90;;;;;;4880763;29;20089;-86
2021/08/14 04:28:49;;;;;;;16.90;9.95;;;18.50;74.10;;;;;;4880795;29;20043;-86
2021/08/14 04:34:38;;;;;;;17.20;9.85;;;18.60;74.40;;;;;;4888584;29;20028;-86
2021/08/14 04:40:26;;;;;;;19.52;10.07;;;18.60;74.20;;;;;;4881326;29;20084;-86
2021/08/14 04:46:51;;;;;;;16.15;10.32;;;18.60;74.20;;;;;;4890156;29;20116;-84
2021/08/14 04:56:42;;;;;;;19.88;10.15;;;18.60;74.50;;;;;;4880037;29;20602;-85
2021/08/14 05:02:31;;;;;;;18.15;11.95;;;18.70;74.70;;;;;;4880276;29;20053;-84
2021/08/14 05:08:22;;;;;;;15.75;10.25;;;18.80;74.80;;;;;;4882138;29;20505;-90
2021/08/14 05:14:10;;;;;;;18.98;11.95;;;18.80;74.80;;;;;;4886562;29;20048;-89
2021/08/14 05:19:59;;;;;;;20.75;12.60;;;18.90;74.90;;;;;;4883931;29;20116;-86
2021/08/14 05:25:47;;;;;;;18.92;12.07;;;18.90;75.00;;;;;;4884480;29;20032;-89
2021/08/14 05:31:36;;;;;;;21.48;13.15;;;19.00;75.40;;;;;;4884164;29;20056;-79
2021/08/14 05:37:27;;;;;;;20.50;12.98;;;19.10;75.40;;;;;;4883953;29;20035;-82
2021/08/14 05:43:16;;;;;;;22.67;13.35;;;19.20;75.40;;;;;;4884505;29;20100;-83
2021/08/14 05:49:07;;;;;;;22.65;14.05;;;19.40;75.60;;;;;;4883197;29;20052;-88
2021/08/14 05:58:59;;;;;;;23.20;13.95;;;19.60;75.80;;;;;;4882581;29;20036;-86
2021/08/14 06:04:47;;;;;;;20.30;13.48;;;19.80;76.30;;;;;;4883081;29;20076;-88
2021/08/14 06:10:37;;;;;;;20.90;13.45;;;20.00;76.30;;;;;;4886689;29;20481;-84
2021/08/14 06:16:25;;;;;;;21.92;12.05;;;20.10;76.20;;;;;;4881521;29;20081;-85
2021/08/14 06:22:14;;;;;;;19.65;11.70;;;20.30;76.50;;;;;;4881870;29;20048;-85
2021/08/14 06:28:02;;;;;;;18.30;12.23;;;20.40;76.10;;;;;;4881591;29;20105;-85
2021/08/14 06:33:51;;;;;;;17.65;11.93;;;20.60;76.40;;;;;;4881171;29;20587;-85
2021/08/14 06:39:39;;;;;;;16.25;10.88;;;20.90;77.10;;;;;;4881432;29;20040;-85
2021/08/14 06:45:27;;;;;;;16.00;10.13;;;21.00;76.80;;;;;;4881308;29;20088;-85
2021/08/14 06:51:16;;;;;;;14.85;10.07;;;21.30;76.70;;;;;;4888156;29;20032;-84
2021/08/14 07:00:51;;;;;;;15.02;9.40;;;21.50;76.20;;;;;;4882048;29;20036;-85
2021/08/14 07:06:39;;;;;;;14.73;9.85;;;21.70;77.40;;;;;;4881765;29;20050;-86
2021/08/14 07:12:27;;;;;;;13.32;9.13;;;22.00;77.00;;;;;;4881606;29;20060;-85
2021/08/14 07:18:16;;;;;;;13.63;8.70;;;22.20;76.80;;;;;;4881737;29;20116;-84
2021/08/14 07:24:05;;;;;;;14.00;8.43;;;22.40;76.60;;;;;;4881415;29;20035;-85
2021/08/14 07:29:54;;;;;;;21.65;8.90;;;22.60;76.40;;;;;;4898397;29;20032;-84
2021/08/14 07:35:44;;;;;;;13.65;8.73;;;22.90;76.40;;;;;;4882213;29;20040;-85
2021/08/14 07:41:33;;;;;;;14.18;9.35;;;23.10;76.30;;;;;;4881343;29;20032;-82
2021/08/14 07:47:21;;;;;;;13.65;8.10;;;23.40;76.20;;;;;;4881053;29;20068;-83
2021/08/14 07:53:09;;;;;;;12.82;7.95;;;23.60;76.00;;;;;;4880692;29;20417;-83
2021/08/14 08:02:33;;;;;;;13.57;8.10;;;24.10;75.90;;;;;;4880746;29;20048;-83
2021/08/14 08:08:22;;;;;;;14.10;7.85;;;24.20;75.10;;;;;;4880792;29;20040;-83
2021/08/14 08:14:10;;;;;;;13.90;7.93;;;24.50;75.40;;;;;;4880938;29;20520;-84
2021/08/14 08:19:59;;;;;;;12.25;7.93;;;24.80;75.00;;;;;;4880567;29;20040;-87
2021/08/14 08:25:48;;;;;;;13.18;6.85;;;25.10;74.50;;;;;;4880307;29;20035;-81
2021/08/14 08:31:36;;;;;;;11.48;6.40;;;25.40;74.40;;;;;;4880455;29;20076;-81
2021/08/14 08:37:24;;;;;;;11.35;6.20;;;25.70;74.00;;;;;;4880495;29;20036;-84
2021/08/14 08:43:13;;;;;;;12.73;6.55;;;26.10;73.30;;;;;;4880408;29;20058;-82
2021/08/14 08:49:03;;;;;;;10.65;6.05;;;26.40;72.50;;;;;;4880388;29;20044;-83
2021/08/14 08:54:53;;;;;;;10.48;5.35;;;27.00;72.50;;;;;;4880204;29;20055;-81
2021/08/14 09:04:31;;;;;;;9.55;5.22;;;27.70;68.90;;;;;;4880077;29;20077;-83
2021/08/14 09:10:25;;;;;;;10.30;5.28;;;27.90;68.40;;;;;;4880060;29;20066;-83
2021/08/14 09:16:18;;;;;;;10.13;5.43;;;27.90;66.40;;;;;;4879748;29;20032;-83
2021/08/14 09:22:20;;;;;;;9.40;4.80;;;28.00;65.30;;;;;;4882488;29;20067;-87
2021/08/14 09:28:09;;;;;;;8.20;4.38;;;28.20;64.60;;;;;;4881954;29;20077;-83
2021/08/14 09:34:15;;;;;;;9.00;4.57;;;28.40;63.70;;;;;;4881676;29;20558;-83
2021/08/14 09:40:05;;;;;;;8.32;4.53;;;28.50;62.30;;;;;;4883251;29;20033;-83
2021/08/14 09:45:55;;;;;;;10.23;4.55;;;28.80;61.20;;;;;;4882410;29;20132;-83
2021/08/14 09:51:43;;;;;;;8.30;4.10;;;29.20;59.70;;;;;;4881888;29;20087;-83
2021/08/14 09:57:32;;;;;;;9.45;4.15;;;29.50;58.50;;;;;;4885089;29;20028;-82
2021/08/14 10:07:22;;;;;;;7.85;4.10;;;29.90;56.10;;;;;;4885694;29;20629;-82
2021/08/14 10:13:12;;;;;;;8.50;4.45;;;30.10;55.30;;;;;;4885884;29;20048;-83
2021/08/14 10:19:01;;;;;;;7.82;4.15;;;30.50;55.00;;;;;;4885807;29;20032;-83
2021/08/14 10:24:51;;;;;;;8.23;4.05;;;31.00;54.10;;;;;;4884964;29;20035;-83
2021/08/14 10:30:46;;;;;;;7.65;3.63;;;31.30;52.60;;;;;;4885944;29;20048;-83
2021/08/14 10:36:36;;;;;;;6.68;3.28;;;31.70;52.10;;;;;;4886549;29;20057;-83
2021/08/14 10:42:53;;;;;;;7.70;3.63;;;32.10;49.50;;;;;;4885263;29;20425;-80
2021/08/14 10:48:54;;;;;;;7.57;3.65;;;32.50;47.90;;;;;;4885258;29;20429;-83
2021/08/14 10:54:42;;;;;;;6.80;3.30;;;33.30;47.30;;;;;;4884894;29;20398;-84
2021/08/14 11:00:30;;;;;;;7.53;3.22;;;34.10;45.50;;;;;;4885209;29;20059;-84
2021/08/14 11:10:35;;;;;;;7.13;3.40;;;35.40;42.50;;;;;;4886223;29;20040;-82
2021/08/14 11:16:59;;;;;;;9.20;3.55;;;36.40;41.70;;;;;;4884975;29;20039;-82
2021/08/14 11:22:53;;;;;;;7.00;3.30;;;37.60;39.70;;;;;;4884086;29;20378;-83
2021/08/14 11:28:42;;;;;;;7.53;3.72;;;38.30;38.40;;;;;;4886540;29;20490;-83
2021/08/14 11:34:31;;;;;;;6.93;3.17;;;39.10;36.20;;;;;;4884820;29;20140;-83
2021/08/14 11:40:23;;;;;;;5.60;2.60;;;40.10;35.10;;;;;;4886087;29;20480;-82
2021/08/14 11:46:12;;;;;;;7.65;3.72;;;40.70;33.60;;;;;;4888139;29;20043;-85
2021/08/14 11:52:05;;;;;;;6.32;3.20;;;41.20;32.60;;;;;;4884668;29;20125;-84
2021/08/14 11:57:53;;;;;;;3.70;2.55;;;42.40;31.60;;;;;;4881004;29;20076;-84
2021/08/14 12:03:41;;;;;;;6.90;3.17;;;43.10;30.00;;;;;;4881072;29;20168;-84
2021/08/14 12:13:30;;;;;;;5.45;3.03;;;45.00;29.30;;;;;;4880352;29;20056;-83
2021/08/14 12:19:22;;;;;;;6.53;2.92;;;45.90;29.40;;;;;;4881055;29;20097;-83
2021/08/14 12:25:23;;;;;;;6.05;3.30;;;46.70;27.80;;;;;;4881027;29;20031;-83
2021/08/14 12:31:20;;;;;;;5.90;3.40;;;47.20;27.70;;;;;;4880348;29;20089;-84
2021/08/14 12:37:14;;;;;;;7.43;3.88;;;48.40;27.20;;;;;;4880325;29;20040;-85
2021/08/14 12:43:19;;;;;;;6.68;3.80;;;49.10;26.90;;;;;;4880055;29;20551;-84
2021/08/14 12:49:22;;;;;;;7.75;3.10;;;49.10;25.40;;;;;;4880514;29;20040;-84
2021/08/14 12:55:13;;;;;;;5.07;3.00;;;49.80;25.30;;;;;;4880253;29;20058;-84
2021/08/14 13:01:02;;;;;;;5.43;2.78;;;50.70;25.20;;;;;;4880114;29;20037;-84
2021/08/14 13:06:51;;;;;;;4.30;2.60;;;51.90;24.70;;;;;;4880177;29;20036;-84
2021/08/14 13:16:40;;;;;;;5.38;2.80;;;53.50;23.60;;;;;;4880485;29;20546;-83
2021/08/14 13:22:28;;;;;;;3.13;2.45;;;54.60;23.00;;;;;;4879788;29;20449;-84
2021/08/14 13:28:17;;;;;;;;;;;55.60;22.50;;;;;;4880260;29;20036;-84
2021/08/14 13:34:06;;;;;;;3.95;2.58;;;57.30;22.40;;;;;;4883719;29;20059;-84
2021/08/14 13:39:55;;;;;;;5.97;4.15;;;57.90;21.10;;;;;;4883566;29;20089;-84
2021/08/14 13:45:43;;;;;;;7.38;5.90;;;58.80;20.60;;;;;;4883429;29;20060;-85
2021/08/14 13:51:34;;;;;;;10.70;9.45;;;59.90;20.10;;;;;;4883258;29;20028;-86
2021/08/14 13:57:21;;;;;;;13.27;12.18;;;61.40;19.80;;;;;;4882837;29;20069;-86
2021/08/14 14:03:09;;;;;;;16.77;15.57;;;61.70;19.90;;;;;;4882822;29;20056;-86
2021/08/14 14:08:58;;;;;;;10.63;9.63;;;61.90;18.90;;;;;;4882832;29;20064;-85
2021/08/14 14:18:41;;;;;;;6.63;5.18;;;60.30;19.30;;;;;;4882699;29;20539;-86
2021/08/14 14:24:30;;;;;;;7.97;6.63;;;60.00;19.20;;;;;;4882255;29;20052;-86
2021/08/14 14:30:19;;;;;;;8.32;6.72;;;60.20;18.90;;;;;;4882241;29;20041;-85
2021/08/14 14:36:07;;;;;;;7.55;6.60;;;59.20;18.80;;;;;;4882364;29;20043;-85
2021/08/14 14:41:55;;;;;;;7.30;6.15;;;59.10;18.90;;;;;;4881706;29;20041;-85
2021/08/14 14:47:46;;;;;;;8.25;7.00;;;59.70;19.00;;;;;;4882124;29;20527;-85
2021/08/14 14:53:35;;;;;;;6.65;5.50;;;59.80;18.70;;;;;;4882056;29;20080;-85
2021/08/14 14:59:24;;;;;;;6.55;4.60;;;59.80;18.70;;;;;;4881987;29;20382;-85
2021/08/14 15:05:12;;;;;;;5.75;3.53;;;58.90;18.80;;;;;;4881878;29;20048;-84
2021/08/14 15:11:05;;;;;;;4.18;3.00;;;57.90;18.90;;;;;;4881697;29;20180;-84
2021/08/14 15:20:48;;;;;;;4.78;2.92;;;55.40;19.20;;;;;;4881638;29;20548;-84
2021/08/14 15:26:36;;;;;;;3.88;2.70;;;54.70;19.90;;;;;;4881289;29;20044;-83
2021/08/14 15:32:26;;;;;;;5.38;3.08;;;54.30;20.00;;;;;;4881216;29;20558;-84
2021/08/14 15:44:45;;;;;;;4.45;2.95;;;53.80;20.20;;;;;;5132534;28;20560;-84
2021/08/14 15:50:34;;;;;;;6.85;3.10;;;53.00;20.70;;;;;;5131940;28;20092;-82
2021/08/14 15:56:23;;;;;;;7.53;3.10;;;52.20;20.90;;;;;;5131996;28;20034;-82
2021/08/14 16:02:13;;;;;;;4.97;3.00;;;52.00;21.50;;;;;;5131900;28;20080;-82
2021/08/14 16:08:00;;;;;;;4.55;2.70;;;51.70;21.60;;;;;;5131554;28;20080;-82
2021/08/14 16:13:49;;;;;;;6.63;3.22;;;50.90;21.90;;;;;;5131614;28;20054;-82
2021/08/14 16:19:38;;;;;;;5.07;3.00;;;50.50;22.40;;;;;;5131803;28;20039;-80
2021/08/14 16:25:27;;;;;;;6.35;3.08;;;50.30;22.30;;;;;;5131495;28;20413;-81
2021/08/14 16:31:17;;;;;;;7.60;3.08;;;49.30;22.60;;;;;;5132254;28;20022;-81
2021/08/14 16:37:06;;;;;;;6.63;2.88;;;48.50;22.90;;;;;;5132066;28;20030;-81
2021/08/14 16:47:01;;;;;;;5.75;2.97;;;47.70;23.50;;;;;;5132345;28;20379;-83
2021/08/14 16:52:51;;;;;;;6.00;2.95;;;47.10;23.40;;;;;;5118300;28;20073;-83
2021/08/14 16:58:40;;;;;;;5.78;3.15;;;46.30;23.80;;;;;;5117740;28;20039;-82
2021/08/14 17:04:28;;;;;;;6.63;3.10;;;45.60;24.20;;;;;;5118031;28;20065;-81
2021/08/14 17:10:17;;;;;;;5.88;3.00;;;45.10;24.40;;;;;;5117171;28;20069;-81
2021/08/14 17:16:05;;;;;;;7.32;3.90;;;44.50;24.70;;;;;;5117184;28;20041;-80
2021/08/14 17:21:54;;;;;;;7.30;3.05;;;44.10;24.80;;;;;;5117305;28;20502;-82
2021/08/14 17:27:41;;;;;;;14.27;12.27;;;43.20;25.00;;;;;;5116486;28;20524;-81
2021/08/14 17:33:29;;;;;;;8.75;3.35;;;42.10;25.10;;;;;;5116690;28;20034;-82
2021/08/14 17:39:18;;;;;;;9.77;3.42;;;40.00;25.60;;;;;;5116102;28;20059;-81
2021/08/14 17:49:02;;;;;;;10.00;3.50;;;37.40;26.90;;;;;;5095753;28;20039;-84
2021/08/14 17:54:50;;;;;;;7.30;3.45;;;36.30;27.60;;;;;;5100826;28;20545;-84
2021/08/14 18:00:39;;;;;;;8.43;4.00;;;35.50;28.30;;;;;;5095468;28;20043;-84
2021/08/14 18:06:27;;;;;;;9.90;4.00;;;34.80;28.80;;;;;;5095645;28;20494;-84
2021/08/14 18:12:17;;;;;;;8.73;3.65;;;34.20;29.50;;;;;;5095293;28;20039;-84
2021/08/14 18:18:06;;;;;;;8.38;4.45;;;33.50;30.20;;;;;;5095126;28;20077;-85
2021/08/14 18:23:55;;;;;;;9.65;4.80;;;32.90;31.20;;;;;;5095191;28;20112;-85
2021/08/14 18:29:44;;;;;;;9.68;5.18;;;32.40;32.00;;;;;;5096501;28;20026;-86
2021/08/14 18:35:32;;;;;;;10.77;4.82;;;31.90;33.10;;;;;;5099135;28;20116;-89
2021/08/14 18:41:22;;;;;;;8.77;4.57;;;31.20;33.90;;;;;;5097762;28;20104;-90
2021/08/14 18:51:05;;;;;;;8.65;4.40;;;30.30;35.50;;;;;;5121250;28;20085;-89
2021/08/14 18:56:55;;;;;;;9.60;4.43;;;29.80;36.60;;;;;;5125268;28;20027;-89
2021/08/14 19:02:53;;;;;;;9.18;4.85;;;29.40;37.80;;;;;;5122305;28;20080;-89
2021/08/14 19:08:45;;;;;;;11.15;5.70;;;29.10;38.80;;;;;;5116730;28;20050;-87
2021/08/14 19:14:42;;;;;;;10.90;4.93;;;28.90;39.60;;;;;;5118151;28;20543;-87
2021/08/14 19:20:32;;;;;;;11.70;5.18;;;28.60;40.30;;;;;;5115942;28;20403;-89
2021/08/14 19:26:20;;;;;;;9.00;4.75;;;28.30;41.10;;;;;;5115609;28;20038;-88
2021/08/14 19:32:09;;;;;;;11.27;5.68;;;28.00;42.10;;;;;;5115715;28;20085;-90
2021/08/14 19:37:58;;;;;;;12.13;6.30;;;27.70;42.70;;;;;;5116164;28;20027;-89
2021/08/14 19:43:47;;;;;;;14.15;6.35;;;27.40;43.70;;;;;;5118961;28;20034;-88
2021/08/14 19:53:44;;;;;;;10.57;6.10;;;27.20;44.70;;;;;;5118269;28;20056;-89
2021/08/14 19:59:34;;;;;;;11.65;6.45;;;26.90;45.50;;;;;;5115181;28;20379;-86
2021/08/14 20:05:44;;;;;;;;;;;;;;;;;;;;;
2021/08/14 20:11:34;;;;;;;12.75;7.53;;;26.40;46.70;;;;;;5116442;28;20031;-89
2021/08/14 20:17:22;;;;;;;12.80;8.35;;;26.20;47.50;;;;;;5117292;28;20035;-88
2021/08/14 20:23:11;;;;;;;12.02;7.50;;;26.00;48.00;;;;;;5116929;28;20034;-90
2021/08/14 20:29:05;;;;;;;13.23;7.47;;;25.80;48.80;;;;;;5120728;28;20061;-88
2021/08/14 20:34:53;;;;;;;11.18;6.30;;;25.70;49.50;;;;;;5120235;28;20080;-89
2021/08/14 20:40:44;;;;;;;12.15;6.93;;;25.50;50.00;;;;;;5119954;28;20062;-88
2021/08/14 20:46:33;;;;;;;14.85;7.97;;;25.40;50.50;;;;;;5121792;28;20066;-87
2021/08/14 20:56:22;;;;;;;15.75;7.10;;;25.10;50.90;;;;;;5119239;28;20062;-87
2021/08/14 21:02:13;;;;;;;13.65;6.60;;;24.90;51.60;;;;;;5119998;28;20252;-89
2021/08/14 21:08:01;;;;;;;12.13;6.55;;;24.70;52.10;;;;;;5117855;28;20058;-87
2021/08/14 21:13:49;;;;;;;11.57;6.93;;;24.50;52.80;;;;;;5117577;28;20034;-89
2021/08/14 21:19:38;;;;;;;13.43;7.05;;;24.50;53.40;;;;;;5118794;28;20050;-88
2021/08/14 21:25:30;;;;;;;12.25;6.55;;;24.30;53.80;;;;;;5124020;28;20034;-88
2021/08/14 21:31:20;;;;;;;18.65;7.05;;;24.20;54.20;;;;;;5116766;28;20518;-88
2021/08/14 21:37:08;;;;;;;11.20;6.88;;;24.10;54.70;;;;;;5116507;28;20031;-88
2021/08/14 21:42:57;;;;;;;12.75;7.00;;;24.00;55.20;;;;;;5116768;28;20046;-87
2021/08/14 21:48:46;;;;;;;12.10;6.82;;;23.90;55.50;;;;;;5116154;28;20418;-86
2021/08/14 21:58:29;;;;;;;10.90;7.25;;;23.70;56.10;;;;;;5116141;28;20110;-87
2021/08/14 22:04:17;;;;;;;12.27;7.28;;;23.50;56.40;;;;;;5116016;28;20524;-87
2021/08/14 22:10:06;;;;;;;12.27;7.10;;;23.40;56.90;;;;;;5115757;28;20031;-87
2021/08/14 22:15:54;;;;;;;10.88;6.55;;;23.20;57.40;;;;;;5115801;28;20035;-88
2021/08/14 22:21:44;;;;;;;10.98;6.90;;;23.20;58.10;;;;;;5115462;28;20066;-87
2021/08/14 22:27:33;;;;;;;10.23;6.50;;;23.10;58.40;;;;;;5115290;28;20122;-88
2021/08/14 22:33:24;;;;;;;11.13;6.32;;;23.10;58.80;;;;;;5118431;28;20037;-86
2021/08/14 22:39:12;;;;;;;11.70;7.43;;;23.10;59.20;;;;;;5116243;28;20047;-86
2021/08/14 22:45:01;;;;;;;12.73;7.38;;;23.10;59.70;;;;;;5117454;28;20023;-88
2021/08/14 22:50:49;;;;;;;11.68;7.18;;;23.10;60.00;;;;;;5115940;28;20022;-87
2021/08/14 23:00:34;;;;;;;11.88;7.18;;;23.00;60.00;;;;;;5114861;28;20088;-88
2021/08/14 23:06:22;;;;;;;11.45;6.95;;;22.80;60.50;;;;;;5115003;28;20084;-88
2021/08/14 23:12:11;;;;;;;11.68;7.47;;;22.80;61.20;;;;;;5114895;28;20085;-88
2021/08/14 23:18:01;;;;;;;13.73;6.88;;;22.80;61.70;;;;;;5114881;28;20027;-87
2021/08/14 23:23:51;;;;;;;11.95;7.15;;;22.80;61.90;;;;;;5114708;28;20046;-88
2021/08/14 23:29:39;;;;;;;12.95;7.43;;;22.80;61.90;;;;;;5114392;28;20499;-88
2021/08/14 23:35:29;;;;;;;12.35;7.57;;;22.70;62.00;;;;;;5114606;28;20549;-88
2021/08/14 23:41:17;;;;;;;14.05;8.23;;;22.60;62.40;;;;;;5114513;28;20047;-87
2021/08/14 23:47:05;;;;;;;12.43;7.80;;;22.50;62.60;;;;;;5117428;28;20084;-87
2021/08/14 23:52:56;;;;;;;12.63;7.82;;;22.30;62.70;;;;;;5116372;28;20038;-87
